Time;durP1;ratioP1;P1;durP2;ratioP2;P2;SDS_P1;SDS_P2;PMS_P1;PMS_P2;Temp;Humidity;BMP_temperature;BMP_pressure;BME280_temperature;BME280_humidity;BME280_pressure;Samples;Min_cycle;Max_cycle;Signal;HPM_P1;HPM_P2
2023/08/31 00:00:52;;;;;;;2.90;1.90;;;16.60;99.90;;;;;;5071227;28;20209;-58
2023/08/31 00:03:19;;;;;;;2.88;1.60;;;16.60;99.90;;;;;;5071296;28;20256;-59
2023/08/31 00:05:46;;;;;;;5.65;2.10;;;16.60;99.90;;;;;;5071143;28;20589;-61
2023/08/31 00:08:13;;;;;;;2.67;1.80;;;16.60;99.90;;;;;;5071106;28;20240;-58
2023/08/31 00:10:40;;;;;;;3.25;2.00;;;16.60;99.90;;;;;;5071106;28;20208;-58
2023/08/31 00:13:07;;;;;;;3.03;1.80;;;16.50;99.90;;;;;;5071333;28;20236;-58
2023/08/31 00:15:35;;;;;;;1.83;1.63;;;16.50;99.90;;;;;;5070981;28;20282;-58
2023/08/31 00:18:04;;;;;;;3.20;1.80;;;16.50;99.90;;;;;;5070908;28;20208;-58
2023/08/31 00:20:31;;;;;;;5.13;1.98;;;16.50;99.90;;;;;;5071141;28;20247;-57
2023/08/31 00:22:58;;;;;;;3.13;2.08;;;16.50;99.90;;;;;;5070927;28;20316;-58
2023/08/31 00:25:25;;;;;;;3.80;1.88;;;16.50;99.90;;;;;;5071151;28;20205;-58
2023/08/31 00:27:52;;;;;;;3.72;1.92;;;16.40;99.90;;;;;;5071170;28;20205;-58
2023/08/31 00:30:19;;;;;;;3.72;2.03;;;16.30;99.90;;;;;;5071059;28;20429;-58
2023/08/31 00:32:47;;;;;;;3.03;1.60;;;16.30;99.90;;;;;;5070870;28;20712;-58
2023/08/31 00:35:15;;;;;;;2.53;1.70;;;16.30;99.90;;;;;;5070975;28;20239;-58
2023/08/31 00:37:42;;;;;;;3.07;2.10;;;16.30;99.90;;;;;;5070647;28;20209;-58
2023/08/31 00:40:11;;;;;;;3.93;2.17;;;16.20;99.90;;;;;;5071203;28;20248;-58
2023/08/31 00:42:38;;;;;;;2.45;1.70;;;16.10;99.90;;;;;;5070570;28;20664;-59
2023/08/31 00:45:06;;;;;;;3.20;1.60;;;15.90;99.90;;;;;;5070958;28;20581;-58
2023/08/31 00:47:33;;;;;;;2.70;1.60;;;15.80;99.90;;;;;;5070682;28;20207;-58
2023/08/31 00:50:00;;;;;;;4.07;1.85;;;15.70;99.90;;;;;;5070779;28;20213;-59
2023/08/31 00:52:28;;;;;;;5.18;1.90;;;15.60;99.90;;;;;;5070856;28;20242;-59
2023/08/31 00:54:55;;;;;;;3.60;2.17;;;15.60;99.90;;;;;;5070960;28;20204;-58
2023/08/31 00:57:22;;;;;;;3.37;1.87;;;15.50;99.90;;;;;;5070523;28;20225;-58
2023/08/31 00:59:49;;;;;;;3.87;2.00;;;15.40;99.90;;;;;;5070749;28;20208;-59
2023/08/31 01:02:21;;;;;;;3.73;2.13;;;15.30;99.90;;;;;;5070417;28;20227;-58
2023/08/31 01:04:56;;;;;;;2.93;2.03;;;15.30;99.90;;;;;;5070531;28;20690;-59
2023/08/31 01:07:32;;;;;;;5.73;2.13;;;15.20;99.90;;;;;;5070538;28;20626;-59
2023/08/31 01:10:08;;;;;;;2.83;2.00;;;15.10;99.90;;;;;;5070651;28;20590;-58
2023/08/31 01:12:41;;;;;;;2.80;2.40;;;15.10;99.90;;;;;;5070511;28;20320;-58
2023/08/31 01:15:12;;;;;;;4.43;2.23;;;15.20;99.90;;;;;;5070523;28;20572;-58
2023/08/31 01:17:42;;;;;;;2.97;2.00;;;15.20;99.90;;;;;;5070457;28;20312;-57
2023/08/31 01:20:12;;;;;;;2.43;2.17;;;15.20;99.90;;;;;;5070640;28;20270;-57
2023/08/31 01:22:48;;;;;;;3.65;1.83;;;15.20;99.90;;;;;;5070354;28;20671;-57
2023/08/31 01:25:17;;;;;;;2.67;1.90;;;15.00;99.90;;;;;;5070459;28;20205;-58
2023/08/31 01:27:44;;;;;;;4.60;2.07;;;14.90;99.90;;;;;;5069868;28;20262;-57
2023/08/31 01:30:11;;;;;;;4.07;2.10;;;14.90;99.90;;;;;;5074056;28;20558;-58
2023/08/31 01:32:38;;;;;;;3.10;2.03;;;14.80;99.90;;;;;;5074230;28;20256;-57
2023/08/31 01:35:07;;;;;;;2.30;2.00;;;14.70;99.90;;;;;;5074030;28;20201;-58
2023/08/31 01:37:43;;;;;;;3.20;2.17;;;14.60;99.90;;;;;;5073646;28;20616;-56
2023/08/31 01:40:14;;;;;;;3.47;2.30;;;14.60;99.90;;;;;;5073921;28;20238;-57
2023/08/31 01:42:43;;;;;;;4.07;2.27;;;14.50;99.90;;;;;;5073929;28;20232;-58
2023/08/31 01:45:14;;;;;;;3.57;2.03;;;14.50;99.90;;;;;;5073951;28;20211;-57
2023/08/31 01:47:41;;;;;;;4.03;2.37;;;14.40;99.90;;;;;;5073471;28;20213;-58
2023/08/31 01:50:09;;;;;;;3.73;2.60;;;14.40;99.90;;;;;;5073734;28;20266;-57
2023/08/31 01:52:36;;;;;;;4.00;2.43;;;14.30;99.90;;;;;;5083047;22;20577;-64
2023/08/31 01:55:03;;;;;;;3.80;2.30;;;14.30;99.90;;;;;;5054677;28;20209;-64
2023/08/31 01:57:29;;;;;;;3.00;2.27;;;14.40;99.90;;;;;;5053682;28;20776;-64
2023/08/31 01:59:57;;;;;;;4.43;2.60;;;14.40;99.90;;;;;;5054712;28;20206;-64
2023/08/31 02:02:24;;;;;;;3.47;2.10;;;14.40;99.90;;;;;;5054016;28;20236;-64
2023/08/31 02:04:51;;;;;;;4.40;2.47;;;14.50;99.90;;;;;;5053999;28;20228;-64
2023/08/31 02:07:18;;;;;;;3.77;2.50;;;14.60;99.90;;;;;;5053791;28;20206;-63
2023/08/31 02:09:45;;;;;;;3.63;2.30;;;14.70;99.90;;;;;;5054165;28;20220;-64
2023/08/31 02:12:12;;;;;;;5.63;2.40;;;14.80;99.90;;;;;;5053615;28;20208;-63
2023/08/31 02:14:39;;;;;;;2.90;2.00;;;14.80;99.90;;;;;;5053985;28;20205;-63
2023/08/31 02:17:07;;;;;;;3.47;1.87;;;14.90;99.90;;;;;;5053120;28;20222;-64
2023/08/31 02:19:34;;;;;;;3.40;2.37;;;14.90;99.90;;;;;;5053301;28;20577;-63
2023/08/31 02:22:00;;;;;;;3.87;2.20;;;14.90;99.90;;;;;;5053530;28;20602;-63
2023/08/31 02:24:27;;;;;;;2.77;2.00;;;14.90;99.90;;;;;;5053404;28;20216;-63
2023/08/31 02:26:54;;;;;;;2.77;1.70;;;15.00;99.90;;;;;;5053080;28;20198;-64
2023/08/31 02:29:20;;;;;;;2.70;1.80;;;15.00;99.90;;;;;;5053258;28;20213;-64
2023/08/31 02:31:47;;;;;;;2.87;1.97;;;15.00;99.90;;;;;;5053126;28;20228;-64
2023/08/31 02:34:15;;;;;;;3.13;2.00;;;15.10;99.90;;;;;;5052979;28;20236;-64
2023/08/31 02:36:42;;;;;;;4.00;1.85;;;15.20;99.90;;;;;;5052984;28;20229;-64
2023/08/31 02:39:09;;;;;;;3.40;2.00;;;15.20;99.90;;;;;;5052771;28;20586;-64
2023/08/31 02:41:35;;;;;;;4.40;2.43;;;15.20;99.90;;;;;;5052888;28;20669;-64
2023/08/31 02:44:01;;;;;;;7.65;2.45;;;15.30;99.90;;;;;;5053100;28;20235;-64
2023/08/31 02:46:28;;;;;;;4.17;2.00;;;15.30;99.90;;;;;;5053329;28;20201;-64
2023/08/31 02:48:54;;;;;;;4.80;2.20;;;15.30;99.90;;;;;;5052811;28;20209;-65
2023/08/31 02:51:22;;;;;;;4.57;2.17;;;15.30;99.90;;;;;;5053124;28;20577;-64
2023/08/31 02:53:49;;;;;;;3.80;2.20;;;15.30;99.90;;;;;;5053112;28;20253;-65
2023/08/31 02:56:16;;;;;;;3.03;2.07;;;15.30;99.90;;;;;;5052234;28;20235;-64
2023/08/31 02:58:43;;;;;;;3.67;2.27;;;15.30;99.90;;;;;;5052866;28;20275;-64
2023/08/31 03:01:11;;;;;;;3.23;2.27;;;15.40;99.90;;;;;;5052549;28;20205;-64
2023/08/31 03:03:38;;;;;;;4.30;2.40;;;15.30;99.90;;;;;;5052484;28;20709;-64
2023/08/31 03:06:06;;;;;;;3.63;2.08;;;15.30;99.90;;;;;;5052321;28;20209;-64
2023/08/31 03:08:35;;;;;;;4.23;2.07;;;15.40;99.90;;;;;;5052491;28;20205;-64
2023/08/31 03:11:03;;;;;;;5.95;2.08;;;15.30;99.90;;;;;;5052542;28;20210;-64
2023/08/31 03:13:31;;;;;;;3.97;2.40;;;15.30;99.90;;;;;;5052320;28;20226;-64
2023/08/31 03:15:58;;;;;;;3.17;2.10;;;15.30;99.90;;;;;;5051773;28;20208;-64
2023/08/31 03:18:25;;;;;;;4.43;3.00;;;15.30;99.90;;;;;;5052256;28;20304;-64
2023/08/31 03:20:51;;;;;;;2.47;2.00;;;15.40;99.90;;;;;;5051892;28;20213;-63
2023/08/31 03:23:18;;;;;;;4.10;2.23;;;15.30;99.90;;;;;;5051910;28;20685;-64
2023/08/31 03:25:46;;;;;;;3.80;2.40;;;15.30;99.90;;;;;;5051642;28;20688;-64
2023/08/31 03:28:13;;;;;;;6.03;2.35;;;15.30;99.90;;;;;;5052021;28;20206;-63
2023/08/31 03:30:40;;;;;;;3.17;2.23;;;15.20;99.90;;;;;;5051999;28;20216;-63
2023/08/31 03:33:07;;;;;;;3.23;2.50;;;15.20;99.90;;;;;;5051945;28;20237;-63
2023/08/31 03:35:33;;;;;;;2.80;2.20;;;15.10;99.90;;;;;;5052287;28;20241;-63
2023/08/31 03:38:00;;;;;;;5.15;2.53;;;15.00;99.90;;;;;;5051793;28;20233;-63
2023/08/31 03:40:27;;;;;;;2.80;2.00;;;15.00;99.90;;;;;;5051839;28;20202;-63
2023/08/31 03:42:55;;;;;;;2.93;1.97;;;14.90;99.90;;;;;;5051668;28;20225;-63
2023/08/31 03:45:22;;;;;;;4.50;2.70;;;14.90;99.90;;;;;;5051706;28;20464;-64
2023/08/31 03:47:48;;;;;;;5.13;2.80;;;14.80;99.90;;;;;;5051559;28;20213;-64
2023/08/31 03:50:15;;;;;;;12.50;9.63;;;14.80;99.90;;;;;;5051642;28;20201;-64
2023/08/31 03:52:42;;;;;;;3.83;2.80;;;14.80;99.90;;;;;;5051007;28;20240;-64
2023/08/31 03:55:09;;;;;;;5.87;2.50;;;14.80;99.90;;;;;;5051951;28;20232;-64
2023/08/31 03:57:35;;;;;;;3.50;2.37;;;14.90;99.90;;;;;;5051142;28;20225;-64
2023/08/31 04:00:08;;;;;;;5.77;3.00;;;14.80;99.90;;;;;;5051441;28;20224;-64
2023/08/31 04:02:35;;;;;;;4.73;2.27;;;14.90;99.90;;;;;;5051129;28;20769;-64
2023/08/31 04:05:05;;;;;;;4.63;2.93;;;14.90;99.90;;;;;;5051303;28;20325;-65
2023/08/31 04:07:32;;;;;;;4.73;2.80;;;15.00;99.90;;;;;;5050939;28;20229;-64
2023/08/31 04:09:58;;;;;;;3.57;2.33;;;15.00;99.90;;;;;;5051041;28;20217;-64
2023/08/31 04:12:25;;;;;;;5.20;2.57;;;15.00;99.90;;;;;;5051374;28;20229;-64
2023/08/31 04:14:51;;;;;;;4.40;2.77;;;15.00;99.90;;;;;;5051092;28;20699;-64
2023/08/31 04:17:19;;;;;;;6.17;2.83;;;14.90;99.90;;;;;;5050880;28;20226;-64
2023/08/31 04:19:51;;;;;;;3.77;2.10;;;15.00;99.90;;;;;;5051144;28;20206;-65
2023/08/31 04:22:18;;;;;;;3.93;2.37;;;15.00;99.90;;;;;;5050961;28;20226;-64
2023/08/31 04:24:44;;;;;;;7.70;2.57;;;14.90;99.90;;;;;;5051047;28;20208;-64
2023/08/31 04:27:11;;;;;;;4.33;2.20;;;14.80;99.90;;;;;;5051113;28;20279;-64
2023/08/31 04:29:38;;;;;;;5.30;3.57;;;14.90;99.90;;;;;;5051003;28;20300;-64
2023/08/31 04:32:05;;;;;;;3.50;1.93;;;14.90;99.90;;;;;;5050958;28;20201;-65
2023/08/31 04:34:33;;;;;;;3.50;2.07;;;14.90;99.90;;;;;;5051111;28;20209;-64
2023/08/31 04:37:00;;;;;;;4.40;2.60;;;14.90;99.90;;;;;;5050725;28;20228;-65
2023/08/31 04:39:28;;;;;;;4.60;2.70;;;14.70;99.90;;;;;;5050979;28;20205;-64
2023/08/31 04:41:54;;;;;;;3.87;2.20;;;14.60;99.90;;;;;;5051103;28;20220;-63
2023/08/31 04:44:22;;;;;;;4.67;3.43;;;14.60;99.90;;;;;;5050910;28;20599;-63
2023/08/31 04:46:49;;;;;;;3.80;2.20;;;14.50;99.90;;;;;;5050609;28;20206;-63
2023/08/31 04:49:15;;;;;;;3.60;2.03;;;14.50;99.90;;;;;;5050780;28;20206;-64
2023/08/31 04:51:45;;;;;;;3.70;2.33;;;14.60;99.90;;;;;;5050769;28;20213;-64
2023/08/31 04:54:12;;;;;;;3.40;1.93;;;14.60;99.90;;;;;;5050575;28;20229;-64
2023/08/31 04:56:39;;;;;;;4.67;2.60;;;14.60;99.90;;;;;;5050404;28;20206;-64
2023/08/31 04:59:05;;;;;;;5.73;2.20;;;14.70;99.90;;;;;;5050765;28;20212;-64
2023/08/31 05:01:32;;;;;;;4.00;2.40;;;14.80;99.90;;;;;;5050930;28;20257;-64
2023/08/31 05:03:59;;;;;;;2.83;2.10;;;14.80;99.90;;;;;;5052595;28;20578;-64
2023/08/31 05:06:26;;;;;;;3.53;2.30;;;14.90;99.90;;;;;;5054170;28;20244;-64
2023/08/31 05:08:54;;;;;;;4.20;2.50;;;15.00;99.90;;;;;;5054543;28;20237;-64
2023/08/31 05:11:21;;;;;;;3.20;2.67;;;15.00;99.90;;;;;;5055116;28;20216;-64
2023/08/31 05:13:48;;;;;;;9.70;5.47;;;15.00;99.90;;;;;;5053960;28;20603;-64
2023/08/31 05:16:15;;;;;;;4.77;2.50;;;15.00;99.90;;;;;;5054495;28;20209;-64
2023/08/31 05:18:42;;;;;;;4.30;2.13;;;15.20;99.90;;;;;;5054077;28;20229;-65
2023/08/31 05:21:08;;;;;;;4.00;2.40;;;15.20;99.90;;;;;;5054311;28;20208;-64
2023/08/31 05:23:35;;;;;;;4.17;1.93;;;15.20;99.90;;;;;;5054152;28;20221;-64
2023/08/31 05:26:03;;;;;;;3.17;2.00;;;15.30;99.90;;;;;;5054147;28;20221;-65
2023/08/31 05:28:30;;;;;;;3.70;1.80;;;15.30;99.90;;;;;;5054293;28;20205;-64
2023/08/31 05:30:58;;;;;;;7.28;1.90;;;15.40;99.90;;;;;;5054200;28;20264;-65
2023/08/31 05:33:28;;;;;;;7.50;2.00;;;15.30;99.90;;;;;;5053935;28;20632;-66
2023/08/31 05:35:55;;;;;;;5.63;2.03;;;15.40;99.90;;;;;;5053893;28;20213;-67
2023/08/31 05:38:21;;;;;;;3.70;2.10;;;15.50;99.90;;;;;;5053975;28;20225;-66
2023/08/31 05:40:48;;;;;;;4.57;2.03;;;15.70;99.90;;;;;;5054065;28;20216;-66
2023/08/31 05:43:17;;;;;;;3.42;2.20;;;16.00;99.90;;;;;;5053831;28;20228;-67
2023/08/31 05:45:43;;;;;;;3.67;1.70;;;16.30;99.90;;;;;;5053556;28;20206;-66
2023/08/31 05:48:10;;;;;;;3.78;2.10;;;16.40;99.90;;;;;;5053556;28;20217;-65
2023/08/31 05:50:37;;;;;;;2.53;1.80;;;16.40;99.90;;;;;;5053908;28;20264;-66
2023/08/31 05:53:05;;;;;;;6.68;4.10;;;16.50;99.90;;;;;;5053657;28;20264;-66
2023/08/31 05:55:32;;;;;;;5.78;2.30;;;16.60;99.90;;;;;;5053673;28;20332;-66
2023/08/31 05:58:00;;;;;;;3.80;1.73;;;16.60;99.90;;;;;;5053369;28;20633;-66
2023/08/31 06:00:28;;;;;;;4.03;1.77;;;16.60;99.90;;;;;;5053563;28;20212;-66
2023/08/31 06:02:55;;;;;;;3.83;1.92;;;16.50;99.90;;;;;;5053616;28;20233;-66
2023/08/31 06:05:22;;;;;;;3.55;1.80;;;16.60;99.90;;;;;;5053937;28;20213;-66
2023/08/31 06:07:48;;;;;;;5.30;2.15;;;16.60;99.90;;;;;;5053634;28;20214;-65
2023/08/31 06:10:15;;;;;;;6.80;1.90;;;16.60;99.90;;;;;;5053678;28;20574;-66
2023/08/31 06:12:42;;;;;;;3.47;2.00;;;16.70;99.90;;;;;;5053338;28;20637;-66
2023/08/31 06:15:09;;;;;;;5.53;1.90;;;16.70;99.90;;;;;;5052673;28;20677;-66
2023/08/31 06:17:37;;;;;;;5.68;2.33;;;16.70;99.90;;;;;;5053226;28;20251;-67
2023/08/31 06:20:06;;;;;;;5.60;2.03;;;16.70;99.90;;;;;;5053111;28;20228;-67
2023/08/31 06:22:32;;;;;;;11.07;2.42;;;16.80;99.90;;;;;;5053333;28;20225;-66
2023/08/31 06:24:59;;;;;;;5.18;1.90;;;16.90;99.90;;;;;;5053098;28;20213;-66
2023/08/31 06:27:26;;;;;;;3.83;1.88;;;17.00;99.90;;;;;;5052925;28;20197;-65
2023/08/31 06:29:53;;;;;;;3.55;1.88;;;17.00;99.90;;;;;;5053064;28;20294;-65
2023/08/31 06:32:19;;;;;;;5.35;1.70;;;17.10;99.90;;;;;;5053102;28;20233;-65
2023/08/31 06:34:48;;;;;;;5.43;1.77;;;17.10;99.90;;;;;;5053014;28;20836;-65
2023/08/31 06:37:14;;;;;;;6.85;1.67;;;17.30;99.90;;;;;;5053311;28;20597;-66
2023/08/31 06:39:41;;;;;;;5.40;1.80;;;17.50;99.90;;;;;;5053221;28;20220;-65
2023/08/31 06:42:08;;;;;;;4.95;2.20;;;17.70;99.90;;;;;;5053639;28;20206;-65
2023/08/31 06:44:35;;;;;;;2.97;1.77;;;17.80;99.90;;;;;;5053289;28;20212;-66
2023/08/31 06:47:03;;;;;;;5.03;1.90;;;17.90;99.90;;;;;;5052587;28;20212;-65
2023/08/31 06:49:32;;;;;;;6.00;1.88;;;17.90;99.90;;;;;;5052489;28;20201;-65
2023/08/31 06:52:02;;;;;;;8.07;2.05;;;18.00;99.90;;;;;;5052305;28;20241;-65
2023/08/31 06:54:29;;;;;;;3.88;1.65;;;18.00;99.90;;;;;;5052453;28;20208;-67
2023/08/31 06:56:56;;;;;;;4.05;1.98;;;17.90;99.90;;;;;;5052117;28;20231;-65
2023/08/31 06:59:22;;;;;;;2.53;1.48;;;17.90;99.90;;;;;;5052505;28;20727;-64
2023/08/31 07:01:49;;;;;;;4.03;1.70;;;18.20;99.90;;;;;;5052499;28;20633;-68
2023/08/31 07:04:16;;;;;;;3.85;1.90;;;18.70;99.90;;;;;;5052421;28;20578;-65
2023/08/31 07:06:43;;;;;;;3.13;1.88;;;19.30;99.90;;;;;;5051852;28;20296;-66
2023/08/31 07:09:11;;;;;;;6.60;2.03;;;20.30;99.90;;;;;;5052457;28;20210;-65
2023/08/31 07:11:38;;;;;;;8.07;4.80;;;21.50;99.90;;;;;;5052366;28;20206;-65
2023/08/31 07:14:05;;;;;;;3.47;1.90;;;22.60;99.90;;;;;;5052269;28;20229;-65
2023/08/31 07:16:31;;;;;;;5.18;1.50;;;23.90;99.90;;;;;;5052105;28;20211;-68
2023/08/31 07:18:58;;;;;;;4.10;1.67;;;25.00;99.90;;;;;;5051965;28;20236;-67
2023/08/31 07:21:25;;;;;;;3.53;1.70;;;26.00;99.90;;;;;;5052241;28;20267;-67
2023/08/31 07:23:51;;;;;;;7.28;2.05;;;26.60;99.90;;;;;;5052153;28;20227;-67
2023/08/31 07:26:19;;;;;;;3.42;1.75;;;27.20;99.90;;;;;;5051198;28;20205;-67
2023/08/31 07:28:46;;;;;;;5.20;1.90;;;27.10;99.90;;;;;;5052145;28;20209;-67
2023/08/31 07:31:13;;;;;;;4.18;1.75;;;26.60;99.90;;;;;;5052022;28;20644;-67
2023/08/31 07:33:40;;;;;;;4.05;1.58;;;26.20;99.90;;;;;;5051940;28;20229;-65
2023/08/31 07:36:07;;;;;;;6.28;1.90;;;25.60;99.90;;;;;;5051682;28;20209;-65
2023/08/31 07:38:34;;;;;;;5.43;1.90;;;25.00;99.90;;;;;;5051713;28;20232;-66
2023/08/31 07:41:00;;;;;;;4.35;1.45;;;24.70;99.90;;;;;;5051870;28;20213;-63
2023/08/31 07:43:29;;;;;;;2.90;1.70;;;24.80;99.90;;;;;;5051385;28;20639;-65
2023/08/31 07:45:56;;;;;;;4.80;1.70;;;25.00;99.90;;;;;;5051392;28;20585;-65
2023/08/31 07:48:23;;;;;;;3.33;1.60;;;25.00;99.90;;;;;;5051684;28;20244;-65
2023/08/31 07:50:50;;;;;;;4.63;2.00;;;25.10;99.90;;;;;;5052021;28;20209;-64
2023/08/31 07:53:17;;;;;;;3.60;1.45;;;25.20;99.90;;;;;;5075600;23;20236;-58
2023/08/31 07:55:52;;;;;;;5.43;1.75;;;25.10;99.90;;;;;;5052327;28;20248;-58
2023/08/31 07:58:19;;;;;;;5.90;2.63;;;25.20;99.90;;;;;;5054941;28;20253;-60
2023/08/31 08:00:47;;;;;;;3.42;1.83;;;25.60;99.90;;;;;;5053146;28;20540;-59
2023/08/31 08:03:14;;;;;;;7.13;1.73;;;26.10;99.90;;;;;;5051778;28;20239;-59
2023/08/31 08:05:41;;;;;;;4.88;1.45;;;26.60;99.90;;;;;;5051477;28;20244;-60
2023/08/31 08:08:08;;;;;;;5.85;4.47;;;27.10;99.90;;;;;;5051773;28;20209;-59
2023/08/31 08:10:35;;;;;;;4.25;2.55;;;27.20;99.90;;;;;;5051595;28;20213;-59
2023/08/31 08:13:01;;;;;;;5.65;2.00;;;27.20;99.90;;;;;;5051620;28;20256;-59
2023/08/31 08:15:28;;;;;;;5.22;1.77;;;27.40;99.90;;;;;;5051177;28;20669;-59
2023/08/31 08:17:57;;;;;;;5.43;1.92;;;27.20;99.90;;;;;;5050950;28;20221;-59
2023/08/31 08:20:23;;;;;;;3.83;1.63;;;26.70;99.90;;;;;;5051505;28;20209;-59
2023/08/31 08:22:52;;;;;;;4.35;2.10;;;26.10;99.90;;;;;;5051517;28;20229;-59
2023/08/31 08:25:19;;;;;;;5.03;2.20;;;25.70;99.90;;;;;;5040589;28;20536;-65
2023/08/31 08:27:45;;;;;;;3.00;1.88;;;25.70;99.90;;;;;;5030083;28;20213;-60
2023/08/31 08:30:12;;;;;;;7.78;1.98;;;25.70;99.90;;;;;;5030522;28;20216;-62
2023/08/31 08:32:39;;;;;;;1.77;1.65;;;25.60;99.90;;;;;;5025872;28;20555;-61
2023/08/31 08:35:08;;;;;;;4.32;1.90;;;25.60;99.90;;;;;;5030466;28;20572;-61
2023/08/31 08:37:35;;;;;;;5.68;1.92;;;25.50;99.90;;;;;;5031220;28;20214;-61
2023/08/31 08:40:03;;;;;;;4.57;1.88;;;25.00;99.90;;;;;;5034207;28;20236;-61
2023/08/31 08:42:31;;;;;;;5.22;2.00;;;24.30;99.90;;;;;;5034114;28;20210;-62
2023/08/31 08:44:58;;;;;;;3.92;2.20;;;23.70;99.90;;;;;;5034333;28;20230;-62
2023/08/31 08:47:26;;;;;;;4.80;1.77;;;23.20;99.90;;;;;;5033124;28;20244;-62
2023/08/31 08:49:55;;;;;;;3.55;1.50;;;22.70;99.90;;;;;;5032951;28;20202;-64
2023/08/31 08:52:24;;;;;;;6.07;4.38;;;22.20;99.90;;;;;;5033636;28;20240;-62
2023/08/31 08:54:51;;;;;;;2.80;1.65;;;21.90;99.90;;;;;;5034123;28;20238;-61
2023/08/31 08:57:18;;;;;;;3.05;1.73;;;21.80;99.90;;;;;;5033079;28;20237;-62
2023/08/31 08:59:44;;;;;;;4.80;2.17;;;21.60;99.90;;;;;;5033583;28;20261;-61
2023/08/31 09:02:12;;;;;;;6.80;2.00;;;21.50;99.90;;;;;;5033940;28;20580;-60
2023/08/31 09:04:39;;;;;;;2.28;1.50;;;21.50;99.90;;;;;;5033480;28;20222;-61
2023/08/31 09:07:06;;;;;;;5.25;1.52;;;21.60;99.90;;;;;;5033880;28;20202;-60
2023/08/31 09:09:48;;;;;;;5.40;2.30;;;21.80;99.90;;;;;;5033781;28;20340;-62
2023/08/31 09:12:15;;;;;;;3.63;1.77;;;22.10;99.90;;;;;;5033570;28;20213;-63
2023/08/31 09:14:42;;;;;;;5.22;2.40;;;22.20;99.90;;;;;;5033669;28;20222;-62
2023/08/31 09:17:08;;;;;;;4.63;2.17;;;22.40;99.90;;;;;;5033169;28;20210;-62
2023/08/31 09:19:36;;;;;;;2.97;1.52;;;22.50;99.90;;;;;;5033818;28;20329;-62
2023/08/31 09:22:02;;;;;;;4.05;1.92;;;22.40;99.90;;;;;;5033086;28;20586;-62
2023/08/31 09:24:29;;;;;;;3.58;1.60;;;22.30;99.90;;;;;;5033505;28;20242;-62
2023/08/31 09:26:58;;;;;;;3.70;1.92;;;22.20;99.90;;;;;;5033038;28;20264;-62
2023/08/31 09:29:25;;;;;;;3.10;1.80;;;22.10;99.90;;;;;;5033179;28;20210;-62
2023/08/31 09:31:52;;;;;;;3.72;1.70;;;22.10;99.90;;;;;;5033492;28;20210;-62
2023/08/31 09:34:19;;;;;;;4.85;1.70;;;22.10;99.90;;;;;;5032966;28;20595;-62
2023/08/31 09:36:46;;;;;;;3.22;1.88;;;22.20;99.90;;;;;;5033554;28;20206;-63
2023/08/31 09:39:15;;;;;;;4.15;2.30;;;22.30;99.90;;;;;;5033157;28;20226;-63
2023/08/31 09:41:55;;;;;;;2.95;1.40;;;22.40;99.90;;;;;;5032990;28;20206;-61
2023/08/31 09:44:23;;;;;;;2.90;1.45;;;22.50;99.90;;;;;;5033042;28;20233;-63
2023/08/31 09:46:50;;;;;;;5.55;1.67;;;22.50;99.90;;;;;;5032843;28;20213;-61
2023/08/31 09:49:18;;;;;;;3.80;1.77;;;22.50;99.90;;;;;;5032199;28;20213;-61
2023/08/31 09:51:46;;;;;;;4.20;1.83;;;22.70;99.90;;;;;;5032731;28;20238;-61
2023/08/31 09:54:15;;;;;;;6.57;2.20;;;22.60;99.90;;;;;;5032874;28;20234;-62
2023/08/31 09:56:43;;;;;;;5.45;1.63;;;22.40;99.90;;;;;;5030803;28;20283;-63
2023/08/31 09:59:10;;;;;;;3.33;1.90;;;22.20;99.90;;;;;;5032113;28;20226;-62
2023/08/31 10:01:39;;;;;;;15.13;13.40;;;22.00;99.90;;;;;;5032907;28;20653;-63
2023/08/31 10:04:08;;;;;;;5.15;2.25;;;21.70;99.90;;;;;;5032731;28;20230;-62
2023/08/31 10:06:35;;;;;;;6.47;2.00;;;21.50;99.90;;;;;;5030985;28;20273;-61
2023/08/31 10:09:03;;;;;;;5.65;3.40;;;21.30;99.90;;;;;;5032606;28;20206;-59
2023/08/31 10:11:31;;;;;;;4.28;2.35;;;21.10;99.90;;;;;;5032381;28;20210;-58
2023/08/31 10:13:59;;;;;;;2.83;1.70;;;21.10;99.90;;;;;;5032485;28;20252;-61
2023/08/31 10:16:26;;;;;;;2.72;1.60;;;21.20;99.90;;;;;;5031616;28;20218;-61
2023/08/31 10:18:56;;;;;;;4.65;1.70;;;21.40;99.90;;;;;;5032018;28;20364;-60
2023/08/31 10:21:23;;;;;;;3.97;2.00;;;21.60;99.90;;;;;;5032949;28;20230;-61
2023/08/31 10:23:51;;;;;;;2.92;1.50;;;22.20;99.90;;;;;;5033031;28;20581;-61
2023/08/31 10:26:26;;;;;;;3.20;1.50;;;22.60;99.90;;;;;;5032806;28;20247;-60
2023/08/31 10:28:53;;;;;;;2.15;1.52;;;23.00;99.40;;;;;;5032782;28;20700;-61
2023/08/31 10:31:22;;;;;;;3.15;1.60;;;23.20;98.10;;;;;;5032974;28;20206;-60
2023/08/31 10:33:58;;;;;;;5.57;1.50;;;23.30;97.70;;;;;;5032357;28;20780;-61
2023/08/31 10:36:37;;;;;;;1.95;1.50;;;23.40;96.00;;;;;;5032088;28;20210;-61
2023/08/31 10:39:12;;;;;;;3.72;1.70;;;23.30;96.70;;;;;;5031433;28;20226;-59
2023/08/31 10:41:40;;;;;;;3.28;1.73;;;23.30;96.60;;;;;;5031436;28;20666;-58
2023/08/31 10:44:28;;;;;;;2.72;1.80;;;23.30;96.10;;;;;;5031839;28;20624;-60
2023/08/31 10:46:55;;;;;;;4.63;1.90;;;23.30;95.90;;;;;;5026323;28;20710;-60
2023/08/31 10:49:25;;;;;;;2.28;1.40;;;23.20;95.20;;;;;;5033353;28;20225;-65
2023/08/31 10:51:57;;;;;;;3.70;2.00;;;23.10;95.70;;;;;;5033091;28;20206;-62
2023/08/31 10:54:25;;;;;;;4.10;1.80;;;23.10;95.90;;;;;;5032574;28;20234;-60
2023/08/31 10:57:06;;;;;;;4.13;1.80;;;23.20;95.80;;;;;;5032737;28;20232;-61
2023/08/31 10:59:47;;;;;;;4.03;1.80;;;23.30;95.70;;;;;;5032851;28;20232;-68
2023/08/31 11:02:31;;;;;;;3.70;1.83;;;23.40;95.20;;;;;;5033062;28;20206;-62
2023/08/31 11:05:04;;;;;;;7.05;5.20;;;23.80;95.30;;;;;;5032904;28;20593;-64
2023/08/31 11:07:31;;;;;;;3.85;1.77;;;23.90;94.00;;;;;;5032767;28;20221;-60
2023/08/31 11:10:12;;;;;;;3.40;1.75;;;24.00;93.50;;;;;;5032582;28;20198;-60
2023/08/31 11:12:39;;;;;;;3.90;1.60;;;23.90;93.70;;;;;;5032443;28;20550;-59
2023/08/31 11:15:08;;;;;;;9.27;1.90;;;23.80;94.10;;;;;;5032427;28;20282;-61
2023/08/31 11:17:35;;;;;;;4.68;1.70;;;23.70;94.40;;;;;;5032609;28;20241;-61
2023/08/31 11:20:05;;;;;;;6.68;1.90;;;23.80;94.50;;;;;;5032705;28;20714;-58
2023/08/31 11:22:32;;;;;;;8.07;2.65;;;24.00;94.40;;;;;;5032470;28;20233;-58
2023/08/31 11:24:59;;;;;;;4.60;1.90;;;24.20;93.30;;;;;;5033022;28;20206;-59
2023/08/31 11:27:26;;;;;;;4.72;1.95;;;24.30;93.70;;;;;;5033338;28;20213;-61
2023/08/31 11:29:53;;;;;;;6.80;2.20;;;24.30;93.40;;;;;;5032277;28;20202;-60
2023/08/31 11:32:20;;;;;;;6.22;2.58;;;24.40;93.60;;;;;;5033969;28;20206;-59
2023/08/31 11:34:46;;;;;;;4.57;2.10;;;24.60;93.80;;;;;;5033352;28;20206;-60
2023/08/31 11:37:17;;;;;;;4.60;1.67;;;24.50;93.40;;;;;;5033869;28;20202;-59
2023/08/31 11:39:49;;;;;;;5.57;1.90;;;24.30;93.30;;;;;;5032353;28;20276;-59
2023/08/31 11:42:18;;;;;;;4.82;2.00;;;24.20;93.20;;;;;;5031899;28;20214;-58
2023/08/31 11:44:45;;;;;;;4.80;1.98;;;24.10;93.60;;;;;;5032159;28;20591;-60
2023/08/31 11:47:13;;;;;;;5.28;2.10;;;24.20;93.60;;;;;;5031884;28;20210;-59
2023/08/31 11:49:40;;;;;;;5.72;1.67;;;24.30;94.10;;;;;;5032194;28;20329;-59
2023/08/31 11:52:07;;;;;;;6.60;1.85;;;24.20;93.20;;;;;;5031725;28;20581;-65
2023/08/31 11:54:38;;;;;;;4.20;2.00;;;24.00;93.50;;;;;;5031633;28;20241;-60
2023/08/31 11:57:08;;;;;;;3.50;1.70;;;23.90;94.10;;;;;;5031889;28;20230;-60
2023/08/31 11:59:36;;;;;;;3.95;1.65;;;23.90;93.80;;;;;;5031957;28;20226;-59
2023/08/31 12:02:02;;;;;;;3.25;1.67;;;24.00;94.20;;;;;;5031820;28;20206;-60
2023/08/31 12:04:29;;;;;;;3.63;1.92;;;24.20;93.50;;;;;;5031401;28;20701;-61
2023/08/31 12:07:04;;;;;;;3.50;2.05;;;24.30;93.10;;;;;;5031649;28;20210;-60
2023/08/31 12:09:31;;;;;;;4.75;2.17;;;24.50;93.30;;;;;;5031655;28;20670;-60
2023/08/31 12:12:00;;;;;;;4.70;2.08;;;24.80;93.40;;;;;;5031523;28;20217;-61
2023/08/31 12:14:27;;;;;;;4.00;1.88;;;25.20;92.80;;;;;;5031860;28;20295;-60
2023/08/31 12:17:02;;;;;;;5.40;2.20;;;25.40;91.50;;;;;;5031674;28;20229;-60
2023/08/31 12:19:29;;;;;;;8.73;2.22;;;25.10;92.00;;;;;;5032110;28;20641;-60
2023/08/31 12:21:56;;;;;;;3.90;2.20;;;24.60;92.80;;;;;;5031941;28;20210;-60
2023/08/31 12:24:23;;;;;;;7.65;2.20;;;24.10;92.40;;;;;;5031673;28;20276;-59
2023/08/31 12:26:51;;;;;;;5.07;2.05;;;24.00;92.50;;;;;;5031539;28;20213;-63
2023/08/31 12:29:19;;;;;;;8.98;2.17;;;23.90;92.60;;;;;;5031486;28;20284;-64
2023/08/31 12:31:45;;;;;;;4.40;1.70;;;24.00;92.90;;;;;;5031688;28;20201;-60
2023/08/31 12:34:12;;;;;;;3.38;2.08;;;24.20;92.80;;;;;;5031823;28;20312;-65
2023/08/31 12:36:40;;;;;;;6.43;2.10;;;24.20;92.30;;;;;;5031755;28;20241;-69
2023/08/31 12:39:09;;;;;;;3.65;1.90;;;24.10;91.80;;;;;;5031645;28;20202;-58
2023/08/31 12:41:36;;;;;;;3.13;1.70;;;24.00;92.70;;;;;;5031648;28;20285;-63
2023/08/31 12:44:04;;;;;;;4.57;2.20;;;24.10;92.80;;;;;;5031597;28;20299;-60
2023/08/31 12:46:32;;;;;;;8.23;2.30;;;24.10;93.50;;;;;;5031871;28;20203;-64
2023/08/31 12:49:00;;;;;;;4.53;1.85;;;24.20;92.60;;;;;;5031318;28;20298;-67